sensor_id;sensor_type;location;lat;lon;timestamp;pressure;altitude;pressure_sealevel;temperature;humidity
42727;BME280;28372;56.832;60.658;2023-05-23T00:01:50;99014.31;;;17.81;35.97
42727;BME280;28372;56.832;60.658;2023-05-23T00:04:21;99034.69;;;17.87;36.32
42727;BME280;28372;56.832;60.658;2023-05-23T00:06:53;99023.72;;;17.87;36.50
42727;BME280;28372;56.832;60.658;2023-05-23T00:09:21;99031.53;;;17.85;37.01
42727;BME280;28372;56.832;60.658;2023-05-23T00:11:48;99033.50;;;17.85;37.13
42727;BME280;28372;56.832;60.658;2023-05-23T00:14:16;99031.16;;;17.83;36.65
42727;BME280;28372;56.832;60.658;2023-05-23T00:16:44;99038.19;;;17.80;36.86
42727;BME280;28372;56.832;60.658;2023-05-23T00:19:12;99038.16;;;17.84;36.91
42727;BME280;28372;56.832;60.658;2023-05-23T00:21:45;99043.25;;;17.89;37.91
42727;BME280;28372;56.832;60.658;2023-05-23T00:24:17;99046.00;;;17.82;37.39
42727;BME280;28372;56.832;60.658;2023-05-23T00:26:46;99051.84;;;17.84;37.63
42727;BME280;28372;56.832;60.658;2023-05-23T00:29:14;99053.03;;;17.87;37.48
42727;BME280;28372;56.832;60.658;2023-05-23T00:31:43;99049.19;;;17.91;37.64
42727;BME280;28372;56.832;60.658;2023-05-23T00:34:14;99047.97;;;17.92;38.24
42727;BME280;28372;56.832;60.658;2023-05-23T00:36:44;99052.31;;;17.97;38.04
42727;BME280;28372;56.832;60.658;2023-05-23T00:39:14;99037.03;;;18.00;38.43
42727;BME280;28372;56.832;60.658;2023-05-23T00:41:49;99053.09;;;18.08;38.66
42727;BME280;28372;56.832;60.658;2023-05-23T00:44:19;99040.94;;;18.09;38.19
42727;BME280;28372;56.832;60.658;2023-05-23T00:46:54;99046.03;;;18.25;38.61
42727;BME280;28372;56.832;60.658;2023-05-23T00:49:23;99042.91;;;18.16;37.50
42727;BME280;28372;56.832;60.658;2023-05-23T00:51:53;99047.22;;;18.24;37.73
42727;BME280;28372;56.832;60.658;2023-05-23T00:54:24;99053.84;;;18.34;37.57
42727;BME280;28372;56.832;60.658;2023-05-23T00:56:53;99045.25;;;18.28;38.16
42727;BME280;28372;56.832;60.658;2023-05-23T00:59:25;99054.63;;;18.42;39.30
42727;BME280;28372;56.832;60.658;2023-05-23T01:01:55;99052.66;;;18.42;38.61
42727;BME280;28372;56.832;60.658;2023-05-23T01:04:23;99051.50;;;18.40;38.51
42727;BME280;28372;56.832;60.658;2023-05-23T01:06:55;99049.53;;;18.44;37.88
42727;BME280;28372;56.832;60.658;2023-05-23T01:09:25;99048.34;;;18.48;38.16
42727;BME280;28372;56.832;60.658;2023-05-23T01:14:51;99042.03;;;18.70;38.20
42727;BME280;28372;56.832;60.658;2023-05-23T01:17:48;99053.75;;;18.84;37.68
42727;BME280;28372;56.832;60.658;2023-05-23T01:20:20;99048.31;;;18.66;37.53
42727;BME280;28372;56.832;60.658;2023-05-23T01:22:54;99045.19;;;18.68;37.35
42727;BME280;28372;56.832;60.658;2023-05-23T01:28:19;99055.31;;;18.86;37.51
42727;BME280;28372;56.832;60.658;2023-05-23T01:30:51;99066.28;;;18.93;37.76
42727;BME280;28372;56.832;60.658;2023-05-23T01:33:19;99063.16;;;18.91;36.94
42727;BME280;28372;56.832;60.658;2023-05-23T01:35:50;99056.91;;;18.94;37.25
42727;BME280;28372;56.832;60.658;2023-05-23T01:38:17;99053.34;;;18.93;36.92
42727;BME280;28372;56.832;60.658;2023-05-23T01:40:45;99065.47;;;19.03;36.58
42727;BME280;28372;56.832;60.658;2023-05-23T01:43:13;99067.03;;;19.08;35.71
42727;BME280;28372;56.832;60.658;2023-05-23T01:45:42;99067.41;;;19.10;35.84
42727;BME280;28372;56.832;60.658;2023-05-23T01:48:11;99072.44;;;19.22;37.24
42727;BME280;28372;56.832;60.658;2023-05-23T01:50:42;99075.56;;;19.28;36.79
42727;BME280;28372;56.832;60.658;2023-05-23T01:53:15;99078.25;;;19.39;36.90
42727;BME280;28372;56.832;60.658;2023-05-23T01:55:43;99067.66;;;19.41;37.19
42727;BME280;28372;56.832;60.658;2023-05-23T01:58:12;99077.41;;;19.45;37.32
42727;BME280;28372;56.832;60.658;2023-05-23T02:00:40;99072.69;;;19.53;37.86
42727;BME280;28372;56.832;60.658;2023-05-23T02:03:08;99068.38;;;19.56;38.09
42727;BME280;28372;56.832;60.658;2023-05-23T02:05:36;99076.16;;;19.64;38.36
42727;BME280;28372;56.832;60.658;2023-05-23T02:08:04;99075.34;;;19.71;39.01
42727;BME280;28372;56.832;60.658;2023-05-23T02:10:31;99078.03;;;19.82;38.60
42727;BME280;28372;56.832;60.658;2023-05-23T02:13:00;99074.81;;;19.94;38.71
42727;BME280;28372;56.832;60.658;2023-05-23T02:15:27;99071.66;;;19.96;38.15
42727;BME280;28372;56.832;60.658;2023-05-23T02:17:57;99080.97;;;20.09;37.81
42727;BME280;28372;56.832;60.658;2023-05-23T02:20:25;99073.84;;;20.15;37.59
42727;BME280;28372;56.832;60.658;2023-05-23T02:22:53;99076.94;;;20.21;37.71
42727;BME280;28372;56.832;60.658;2023-05-23T02:25:20;99077.63;;;20.32;37.34
42727;BME280;28372;56.832;60.658;2023-05-23T02:27:48;99072.09;;;20.40;37.16
42727;BME280;28372;56.832;60.658;2023-05-23T02:30:15;99079.47;;;20.50;37.01
42727;BME280;28372;56.832;60.658;2023-05-23T02:32:43;99078.94;;;20.62;36.86
42727;BME280;28372;56.832;60.658;2023-05-23T02:35:11;99090.25;;;20.71;36.41
42727;BME280;28372;56.832;60.658;2023-05-23T02:37:39;99087.41;;;20.82;36.24
42727;BME280;28372;56.832;60.658;2023-05-23T02:40:07;99088.84;;;20.94;36.24
42727;BME280;28372;56.832;60.658;2023-05-23T02:42:35;99089.09;;;21.07;36.00
42727;BME280;28372;56.832;60.658;2023-05-23T02:45:03;99092.88;;;21.20;35.40
42727;BME280;28372;56.832;60.658;2023-05-23T02:47:31;99090.41;;;21.30;35.48
42727;BME280;28372;56.832;60.658;2023-05-23T02:49:58;99083.88;;;21.47;35.28
42727;BME280;28372;56.832;60.658;2023-05-23T02:52:27;99067.75;;;21.49;35.25
42727;BME280;28372;56.832;60.658;2023-05-23T02:54:54;99092.19;;;21.75;35.03
42727;BME280;28372;56.832;60.658;2023-05-23T02:57:22;99095.44;;;21.97;34.64
42727;BME280;28372;56.832;60.658;2023-05-23T02:59:49;99098.56;;;22.22;34.53
42727;BME280;28372;56.832;60.658;2023-05-23T03:02:17;99102.16;;;22.67;33.91
42727;BME280;28372;56.832;60.658;2023-05-23T03:04:45;99103.00;;;23.27;32.91
42727;BME280;28372;56.832;60.658;2023-05-23T03:07:12;99102.97;;;23.84;32.06
42727;BME280;28372;56.832;60.658;2023-05-23T03:09:55;99109.47;;;24.43;31.07
42727;BME280;28372;56.832;60.658;2023-05-23T03:12:22;99106.41;;;24.87;29.92
42727;BME280;28372;56.832;60.658;2023-05-23T03:14:52;99105.47;;;25.36;28.95
42727;BME280;28372;56.832;60.658;2023-05-23T03:17:19;99103.97;;;25.87;28.04
42727;BME280;28372;56.832;60.658;2023-05-23T03:19:47;99103.69;;;26.32;27.46
42727;BME280;28372;56.832;60.658;2023-05-23T03:22:14;99103.28;;;26.69;26.85
42727;BME280;28372;56.832;60.658;2023-05-23T03:24:42;99111.19;;;27.15;26.36
42727;BME280;28372;56.832;60.658;2023-05-23T03:27:10;99116.53;;;27.53;25.83
42727;BME280;28372;56.832;60.658;2023-05-23T03:29:38;99120.25;;;27.91;25.41
42727;BME280;28372;56.832;60.658;2023-05-23T03:32:06;99114.97;;;28.25;24.69
42727;BME280;28372;56.832;60.658;2023-05-23T03:34:34;99116.91;;;28.65;24.27
42727;BME280;28372;56.832;60.658;2023-05-23T03:37:02;99118.91;;;29.01;23.84
42727;BME280;28372;56.832;60.658;2023-05-23T03:39:30;99110.22;;;29.36;23.43
42727;BME280;28372;56.832;60.658;2023-05-23T03:41:58;99112.25;;;29.79;23.23
42727;BME280;28372;56.832;60.658;2023-05-23T03:44:26;99116.00;;;30.09;22.60
42727;BME280;28372;56.832;60.658;2023-05-23T03:46:53;99119.53;;;30.43;21.93
42727;BME280;28372;56.832;60.658;2023-05-23T03:49:21;99114.81;;;30.73;22.01
42727;BME280;28372;56.832;60.658;2023-05-23T03:51:49;99114.41;;;31.05;21.10
42727;BME280;28372;56.832;60.658;2023-05-23T03:54:17;99108.06;;;31.34;20.87
42727;BME280;28372;56.832;60.658;2023-05-23T03:56:45;99113.47;;;31.68;20.54
42727;BME280;28372;56.832;60.658;2023-05-23T03:59:14;99115.41;;;31.97;19.79
42727;BME280;28372;56.832;60.658;2023-05-23T04:01:41;99111.28;;;32.28;19.42
42727;BME280;28372;56.832;60.658;2023-05-23T04:04:09;99119.53;;;32.58;19.40
42727;BME280;28372;56.832;60.658;2023-05-23T04:06:37;99116.81;;;32.84;18.95
42727;BME280;28372;56.832;60.658;2023-05-23T04:09:05;99110.19;;;33.08;18.90
42727;BME280;28372;56.832;60.658;2023-05-23T04:11:37;99114.47;;;33.29;18.69
42727;BME280;28372;56.832;60.658;2023-05-23T04:14:06;99114.19;;;33.59;18.27
42727;BME280;28372;56.832;60.658;2023-05-23T04:16:36;99123.84;;;33.85;17.95
42727;BME280;28372;56.832;60.658;2023-05-23T04:19:04;99120.47;;;34.18;16.91
42727;BME280;28372;56.832;60.658;2023-05-23T04:21:33;99122.66;;;34.46;17.07
42727;BME280;28372;56.832;60.658;2023-05-23T04:24:12;99100.25;;;34.69;17.00
42727;BME280;28372;56.832;60.658;2023-05-23T04:26:40;99109.81;;;34.99;16.48
42727;BME280;28372;56.832;60.658;2023-05-23T04:29:09;99113.69;;;35.30;15.81
42727;BME280;28372;56.832;60.658;2023-05-23T04:31:38;99099.13;;;35.49;15.78
42727;BME280;28372;56.832;60.658;2023-05-23T04:34:06;99108.56;;;35.85;15.50
42727;BME280;28372;56.832;60.658;2023-05-23T04:36:37;99100.09;;;36.08;15.25
42727;BME280;28372;56.832;60.658;2023-05-23T04:39:06;99102.84;;;36.31;15.29
42727;BME280;28372;56.832;60.658;2023-05-23T04:41:43;99112.28;;;36.39;14.57
42727;BME280;28372;56.832;60.658;2023-05-23T04:44:18;99112.59;;;36.83;14.70
42727;BME280;28372;56.832;60.658;2023-05-23T04:46:53;99105.00;;;37.08;14.24
42727;BME280;28372;56.832;60.658;2023-05-23T04:49:28;99109.75;;;37.30;13.50
42727;BME280;28372;56.832;60.658;2023-05-23T04:51:56;99109.75;;;37.55;13.60
42727;BME280;28372;56.832;60.658;2023-05-23T04:54:26;99106.47;;;37.81;13.25
42727;BME280;28372;56.832;60.658;2023-05-23T04:56:56;99106.16;;;38.10;12.89
42727;BME280;28372;56.832;60.658;2023-05-23T04:59:25;99108.66;;;38.38;12.69
42727;BME280;28372;56.832;60.658;2023-05-23T05:01:53;99104.78;;;38.60;12.71
42727;BME280;28372;56.832;60.658;2023-05-23T05:04:20;99111.94;;;38.86;12.20
42727;BME280;28372;56.832;60.658;2023-05-23T05:06:50;99109.19;;;39.13;12.52
42727;BME280;28372;56.832;60.658;2023-05-23T05:09:18;99108.41;;;39.31;11.77
42727;BME280;28372;56.832;60.658;2023-05-23T05:11:49;99100.63;;;39.51;11.91
42727;BME280;28372;56.832;60.658;2023-05-23T05:14:18;99111.44;;;39.66;11.74
42727;BME280;28372;56.832;60.658;2023-05-23T05:16:46;99100.03;;;39.85;11.47
42727;BME280;28372;56.832;60.658;2023-05-23T05:19:15;99107.22;;;39.99;11.66
42727;BME280;28372;56.832;60.658;2023-05-23T05:21:44;99099.06;;;40.22;11.61
42727;BME280;28372;56.832;60.658;2023-05-23T05:24:12;99107.28;;;40.47;11.22
42727;BME280;28372;56.832;60.658;2023-05-23T05:26:41;99107.59;;;40.70;11.07
42727;BME280;28372;56.832;60.658;2023-05-23T05:29:09;99100.88;;;40.95;10.91
42727;BME280;28372;56.832;60.658;2023-05-23T05:31:37;99109.63;;;41.18;10.50
42727;BME280;28372;56.832;60.658;2023-05-23T05:34:05;99106.13;;;41.33;10.54
42727;BME280;28372;56.832;60.658;2023-05-23T05:36:32;99106.66;;;41.44;10.27
42727;BME280;28372;56.832;60.658;2023-05-23T05:39:01;99099.00;;;41.60;9.62
42727;BME280;28372;56.832;60.658;2023-05-23T05:41:29;99091.16;;;41.74;10.24
42727;BME280;28372;56.832;60.658;2023-05-23T05:43:56;99096.59;;;41.93;9.04
42727;BME280;28372;56.832;60.658;2023-05-23T05:46:24;99097.19;;;42.00;8.52
42727;BME280;28372;56.832;60.658;2023-05-23T05:48:52;99098.00;;;42.08;9.89
42727;BME280;28372;56.832;60.658;2023-05-23T05:51:21;99089.97;;;42.20;9.01
42727;BME280;28372;56.832;60.658;2023-05-23T05:53:48;99097.38;;;42.31;9.28
42727;BME280;28372;56.832;60.658;2023-05-23T05:56:16;99088.53;;;42.50;9.06
42727;BME280;28372;56.832;60.658;2023-05-23T05:58:43;99090.72;;;42.72;8.56
42727;BME280;28372;56.832;60.658;2023-05-23T06:01:14;99097.38;;;42.83;8.40
42727;BME280;28372;56.832;60.658;2023-05-23T06:03:42;99089.81;;;43.01;8.16
42727;BME280;28372;56.832;60.658;2023-05-23T06:06:11;99087.78;;;43.24;8.20
42727;BME280;28372;56.832;60.658;2023-05-23T06:08:41;99082.47;;;43.13;7.16
42727;BME280;28372;56.832;60.658;2023-05-23T06:11:14;99086.44;;;43.25;7.83
42727;BME280;28372;56.832;60.658;2023-05-23T06:13:41;99091.19;;;43.46;7.01
42727;BME280;28372;56.832;60.658;2023-05-23T06:16:09;99088.72;;;43.58;7.31
42727;BME280;28372;56.832;60.658;2023-05-23T06:18:37;99083.00;;;43.73;6.90
42727;BME280;28372;56.832;60.658;2023-05-23T06:21:05;99079.94;;;43.94;6.65
42727;BME280;28372;56.832;60.658;2023-05-23T06:23:35;99076.28;;;44.09;6.37
42727;BME280;28372;56.832;60.658;2023-05-23T06:26:03;99072.66;;;44.17;6.39
42727;BME280;28372;56.832;60.658;2023-05-23T06:28:34;99069.75;;;44.24;6.97
42727;BME280;28372;56.832;60.658;2023-05-23T06:31:01;99069.13;;;44.41;6.83
42727;BME280;28372;56.832;60.658;2023-05-23T06:33:29;99072.53;;;44.47;6.45
42727;BME280;28372;56.832;60.658;2023-05-23T06:35:57;99073.06;;;44.54;6.76
42727;BME280;28372;56.832;60.658;2023-05-23T06:38:28;99079.47;;;44.62;6.70
42727;BME280;28372;56.832;60.658;2023-05-23T06:40:56;99068.22;;;44.72;6.41
42727;BME280;28372;56.832;60.658;2023-05-23T06:43:23;99070.69;;;44.75;6.50
42727;BME280;28372;56.832;60.658;2023-05-23T06:45:52;99078.88;;;44.71;6.44
42727;BME280;28372;56.832;60.658;2023-05-23T06:48:20;99071.66;;;44.70;6.56
42727;BME280;28372;56.832;60.658;2023-05-23T06:50:48;99062.25;;;44.85;6.32
42727;BME280;28372;56.832;60.658;2023-05-23T06:53:16;99066.19;;;44.90;6.34
42727;BME280;28372;56.832;60.658;2023-05-23T06:55:47;99058.84;;;45.04;6.78
42727;BME280;28372;56.832;60.658;2023-05-23T06:58:17;99060.28;;;45.21;7.02
42727;BME280;28372;56.832;60.658;2023-05-23T07:00:45;99060.03;;;45.26;6.28
42727;BME280;28372;56.832;60.658;2023-05-23T07:03:23;99062.41;;;45.38;6.70
42727;BME280;28372;56.832;60.658;2023-05-23T07:05:52;99059.16;;;45.41;6.07
42727;BME280;28372;56.832;60.658;2023-05-23T07:08:21;99058.34;;;45.48;5.80
42727;BME280;28372;56.832;60.658;2023-05-23T07:10:58;99061.78;;;45.47;6.07
42727;BME280;28372;56.832;60.658;2023-05-23T07:13:38;99053.25;;;45.39;6.45
42727;BME280;28372;56.832;60.658;2023-05-23T07:16:06;99053.59;;;45.43;6.32
42727;BME280;28372;56.832;60.658;2023-05-23T07:18:39;99047.53;;;45.39;6.49
42727;BME280;28372;56.832;60.658;2023-05-23T07:21:07;99050.63;;;45.33;6.26
42727;BME280;28372;56.832;60.658;2023-05-23T07:23:35;99054.56;;;45.21;6.06
42727;BME280;28372;56.832;60.658;2023-05-23T07:26:03;99046.28;;;45.07;6.22
42727;BME280;28372;56.832;60.658;2023-05-23T07:28:40;99047.56;;;44.89;6.30
42727;BME280;28372;56.832;60.658;2023-05-23T07:31:07;99051.34;;;44.66;6.35
42727;BME280;28372;56.832;60.658;2023-05-23T07:33:37;99048.41;;;44.41;6.29
42727;BME280;28372;56.832;60.658;2023-05-23T07:36:07;99050.81;;;44.11;6.51
42727;BME280;28372;56.832;60.658;2023-05-23T07:38:34;99049.19;;;43.77;6.79
42727;BME280;28372;56.832;60.658;2023-05-23T07:41:02;99041.09;;;43.51;6.80
42727;BME280;28372;56.832;60.658;2023-05-23T07:43:39;99050.56;;;43.15;6.59
42727;BME280;28372;56.832;60.658;2023-05-23T07:46:07;99039.50;;;42.65;6.67
42727;BME280;28372;56.832;60.658;2023-05-23T07:48:36;99041.25;;;42.23;6.91
42727;BME280;28372;56.832;60.658;2023-05-23T07:51:04;99036.94;;;41.93;7.08
42727;BME280;28372;56.832;60.658;2023-05-23T07:53:32;99037.56;;;41.71;6.88
42727;BME280;28372;56.832;60.658;2023-05-23T07:56:02;99032.38;;;41.12;7.23
42727;BME280;28372;56.832;60.658;2023-05-23T07:58:35;99028.06;;;40.76;7.65
42727;BME280;28372;56.832;60.658;2023-05-23T08:01:02;99035.25;;;40.42;7.83
42727;BME280;28372;56.832;60.658;2023-05-23T08:03:53;99025.53;;;40.03;8.07
42727;BME280;28372;56.832;60.658;2023-05-23T08:06:28;99026.19;;;39.69;8.25
42727;BME280;28372;56.832;60.658;2023-05-23T08:08:59;99022.88;;;39.38;8.18
42727;BME280;28372;56.832;60.658;2023-05-23T08:11:29;99023.81;;;39.14;8.37
42727;BME280;28372;56.832;60.658;2023-05-23T08:13:57;99026.09;;;38.83;8.52
42727;BME280;28372;56.832;60.658;2023-05-23T08:16:47;99021.22;;;38.65;8.57
42727;BME280;28372;56.832;60.658;2023-05-23T08:19:20;99024.88;;;38.41;8.50
42727;BME280;28372;56.832;60.658;2023-05-23T08:21:48;99020.28;;;38.18;8.59
42727;BME280;28372;56.832;60.658;2023-05-23T08:24:16;99024.16;;;37.96;8.76
42727;BME280;28372;56.832;60.658;2023-05-23T08:26:44;99016.44;;;37.72;9.37
42727;BME280;28372;56.832;60.658;2023-05-23T08:29:13;99024.50;;;37.62;9.22
42727;BME280;28372;56.832;60.658;2023-05-23T08:31:41;99008.88;;;37.36;8.88
42727;BME280;28372;56.832;60.658;2023-05-23T08:34:10;99006.63;;;37.29;9.07
42727;BME280;28372;56.832;60.658;2023-05-23T08:36:39;99012.38;;;37.18;9.17
42727;BME280;28372;56.832;60.658;2023-05-23T08:39:14;99016.28;;;37.09;9.25
42727;BME280;28372;56.832;60.658;2023-05-23T08:41:52;99008.19;;;36.94;8.97
42727;BME280;28372;56.832;60.658;2023-05-23T08:44:20;99005.44;;;36.89;9.51
42727;BME280;28372;56.832;60.658;2023-05-23T08:46:53;99008.13;;;36.64;9.54
42727;BME280;28372;56.832;60.658;2023-05-23T08:49:51;99005.41;;;36.52;9.47
42727;BME280;28372;56.832;60.658;2023-05-23T08:52:24;99014.41;;;36.45;9.37
42727;BME280;28372;56.832;60.658;2023-05-23T08:54:56;99000.16;;;36.21;9.83
42727;BME280;28372;56.832;60.658;2023-05-23T08:57:26;99000.00;;;36.07;9.95
42727;BME280;28372;56.832;60.658;2023-05-23T08:59:59;99000.81;;;35.91;9.85
42727;BME280;28372;56.832;60.658;2023-05-23T09:02:31;99003.94;;;35.76;9.62
42727;BME280;28372;56.832;60.658;2023-05-23T09:05:11;98998.06;;;35.62;10.12
42727;BME280;28372;56.832;60.658;2023-05-23T09:07:39;98996.56;;;35.50;10.34
42727;BME280;28372;56.832;60.658;2023-05-23T09:10:08;98999.16;;;35.42;10.10
42727;BME280;28372;56.832;60.658;2023-05-23T09:12:36;98996.84;;;35.24;10.22
42727;BME280;28372;56.832;60.658;2023-05-23T09:15:08;98997.09;;;35.26;10.14
42727;BME280;28372;56.832;60.658;2023-05-23T09:17:35;98973.09;;;35.08;10.59
42727;BME280;28372;56.832;60.658;2023-05-23T09:20:12;98990.97;;;35.27;10.47
42727;BME280;28372;56.832;60.658;2023-05-23T09:22:47;98984.84;;;35.06;10.62
42727;BME280;28372;56.832;60.658;2023-05-23T09:25:17;98986.91;;;34.94;10.42
42727;BME280;28372;56.832;60.658;2023-05-23T09:27:46;98988.66;;;34.69;10.44
42727;BME280;28372;56.832;60.658;2023-05-23T09:30:16;98990.94;;;34.71;10.69
42727;BME280;28372;56.832;60.658;2023-05-23T09:32:57;98988.94;;;34.88;10.79
42727;BME280;28372;56.832;60.658;2023-05-23T09:35:29;98974.56;;;34.58;10.66
42727;BME280;28372;56.832;60.658;2023-05-23T09:37:58;98979.94;;;34.50;10.82
42727;BME280;28372;56.832;60.658;2023-05-23T09:40:30;98990.66;;;34.52;11.10
42727;BME280;28372;56.832;60.658;2023-05-23T09:43:03;98981.47;;;34.40;11.16
42727;BME280;28372;56.832;60.658;2023-05-23T09:45:32;98980.88;;;34.19;11.30
42727;BME280;28372;56.832;60.658;2023-05-23T09:48:01;98972.13;;;34.05;11.21
42727;BME280;28372;56.832;60.658;2023-05-23T09:50:32;98978.25;;;33.98;11.28
42727;BME280;28372;56.832;60.658;2023-05-23T09:53:01;98972.59;;;33.92;11.36
42727;BME280;28372;56.832;60.658;2023-05-23T09:55:29;98975.09;;;33.85;11.35
42727;BME280;28372;56.832;60.658;2023-05-23T09:57:58;98978.16;;;33.81;11.62
42727;BME280;28372;56.832;60.658;2023-05-23T10:00:26;98976.25;;;33.67;11.45
42727;BME280;28372;56.832;60.658;2023-05-23T10:13:48;98986.09;;;32.55;11.57
42727;BME280;28372;56.832;60.658;2023-05-23T10:16:28;98982.75;;;32.51;12.00
42727;BME280;28372;56.832;60.658;2023-05-23T10:19:02;98981.84;;;32.39;12.07
42727;BME280;28372;56.832;60.658;2023-05-23T10:21:33;98982.19;;;32.47;11.81
42727;BME280;28372;56.832;60.658;2023-05-23T10:24:03;98979.06;;;32.39;12.19
42727;BME280;28372;56.832;60.658;2023-05-23T10:26:31;98959.91;;;32.32;12.14
42727;BME280;28372;56.832;60.658;2023-05-23T10:28:59;98965.44;;;32.26;12.39
42727;BME280;28372;56.832;60.658;2023-05-23T10:31:27;98967.91;;;32.18;12.50
42727;BME280;28372;56.832;60.658;2023-05-23T10:34:04;98971.53;;;32.24;12.45
42727;BME280;28372;56.832;60.658;2023-05-23T10:39:27;98965.13;;;32.18;11.98
42727;BME280;28372;56.832;60.658;2023-05-23T10:42:02;98960.88;;;32.08;12.46
42727;BME280;28372;56.832;60.658;2023-05-23T10:44:31;98956.44;;;31.96;12.63
42727;BME280;28372;56.832;60.658;2023-05-23T10:47:00;98958.38;;;31.89;12.70
42727;BME280;28372;56.832;60.658;2023-05-23T10:52:13;98961.53;;;31.97;12.61
42727;BME280;28372;56.832;60.658;2023-05-23T10:54:43;98953.22;;;31.82;12.89
42727;BME280;28372;56.832;60.658;2023-05-23T10:57:15;98952.94;;;31.80;12.68
42727;BME280;28372;56.832;60.658;2023-05-23T10:59:44;98959.56;;;31.83;12.46
42727;BME280;28372;56.832;60.658;2023-05-23T11:02:15;98959.84;;;31.85;12.60
42727;BME280;28372;56.832;60.658;2023-05-23T11:04:44;98948.09;;;31.81;12.54
42727;BME280;28372;56.832;60.658;2023-05-23T11:07:28;98954.13;;;32.15;12.11
42727;BME280;28372;56.832;60.658;2023-05-23T11:10:23;98948.03;;;32.16;11.82
42727;BME280;28372;56.832;60.658;2023-05-23T11:13:05;98954.25;;;32.05;11.84
42727;BME280;28372;56.832;60.658;2023-05-23T11:15:42;98950.84;;;31.96;12.24
42727;BME280;28372;56.832;60.658;2023-05-23T11:18:27;98945.16;;;31.90;12.67
42727;BME280;28372;56.832;60.658;2023-05-23T11:20:57;98955.22;;;31.61;12.15
42727;BME280;28372;56.832;60.658;2023-05-23T11:23:39;98960.19;;;31.36;12.88
42727;BME280;28372;56.832;60.658;2023-05-23T11:26:30;98954.84;;;31.18;12.65
42727;BME280;28372;56.832;60.658;2023-05-23T11:28:59;98950.53;;;30.72;13.13
42727;BME280;28372;56.832;60.658;2023-05-23T11:31:26;98945.81;;;30.78;13.06
42727;BME280;28372;56.832;60.658;2023-05-23T11:33:54;98940.31;;;30.84;12.94
42727;BME280;28372;56.832;60.658;2023-05-23T11:36:22;98940.91;;;30.88;12.81
42727;BME280;28372;56.832;60.658;2023-05-23T11:38:51;98953.41;;;30.92;13.26
42727;BME280;28372;56.832;60.658;2023-05-23T11:41:19;98939.94;;;30.76;13.26
42727;BME280;28372;56.832;60.658;2023-05-23T11:43:51;98949.84;;;30.77;13.18
42727;BME280;28372;56.832;60.658;2023-05-23T11:46:19;98941.09;;;30.69;13.21
42727;BME280;28372;56.832;60.658;2023-05-23T11:48:47;98941.47;;;30.62;13.08
42727;BME280;28372;56.832;60.658;2023-05-23T11:51:16;98933.22;;;30.53;13.13
42727;BME280;28372;56.832;60.658;2023-05-23T11:53:43;98931.38;;;30.50;13.18
42727;BME280;28372;56.832;60.658;2023-05-23T11:56:13;98928.50;;;30.44;13.50
42727;BME280;28372;56.832;60.658;2023-05-23T11:58:41;98919.78;;;30.42;13.39
42727;BME280;28372;56.832;60.658;2023-05-23T12:01:11;98922.13;;;30.44;13.24
42727;BME280;28372;56.832;60.658;2023-05-23T12:03:47;98928.00;;;30.61;13.20
42727;BME280;28372;56.832;60.658;2023-05-23T12:06:19;98926.84;;;30.52;13.44
42727;BME280;28372;56.832;60.658;2023-05-23T12:08:47;98923.34;;;30.42;13.44
42727;BME280;28372;56.832;60.658;2023-05-23T12:11:15;98916.97;;;30.27;13.29
42727;BME280;28372;56.832;60.658;2023-05-23T12:13:42;98905.91;;;30.18;13.49
42727;BME280;28372;56.832;60.658;2023-05-23T12:16:12;98914.56;;;30.20;13.39
42727;BME280;28372;56.832;60.658;2023-05-23T12:18:41;98916.50;;;30.14;13.41
42727;BME280;28372;56.832;60.658;2023-05-23T12:21:10;98885.69;;;30.08;13.29
42727;BME280;28372;56.832;60.658;2023-05-23T12:23:38;98904.75;;;30.10;13.67
42727;BME280;28372;56.832;60.658;2023-05-23T12:26:06;98891.66;;;30.16;13.78
42727;BME280;28372;56.832;60.658;2023-05-23T12:33:39;98902.66;;;30.34;13.23
42727;BME280;28372;56.832;60.658;2023-05-23T12:36:09;98895.44;;;30.28;13.58
42727;BME280;28372;56.832;60.658;2023-05-23T12:38:37;98895.91;;;30.26;13.42
42727;BME280;28372;56.832;60.658;2023-05-23T12:41:10;98905.16;;;30.32;13.23
42727;BME280;28372;56.832;60.658;2023-05-23T12:43:39;98902.81;;;30.16;13.88
42727;BME280;28372;56.832;60.658;2023-05-23T12:46:07;98901.47;;;30.11;13.82
42727;BME280;28372;56.832;60.658;2023-05-23T12:48:35;98899.81;;;30.04;13.86
42727;BME280;28372;56.832;60.658;2023-05-23T12:51:03;98898.97;;;29.98;13.91
42727;BME280;28372;56.832;60.658;2023-05-23T12:53:31;98897.22;;;30.01;13.32
42727;BME280;28372;56.832;60.658;2023-05-23T12:55:58;98896.66;;;29.97;13.40
42727;BME280;28372;56.832;60.658;2023-05-23T12:58:26;98898.38;;;29.94;13.78
42727;BME280;28372;56.832;60.658;2023-05-23T13:00:57;98890.84;;;29.85;13.62
42727;BME280;28372;56.832;60.658;2023-05-23T13:03:25;98897.59;;;29.94;13.75
42727;BME280;28372;56.832;60.658;2023-05-23T13:05:53;98898.06;;;29.92;13.57
42727;BME280;28372;56.832;60.658;2023-05-23T13:08:20;98895.00;;;29.90;13.53
42727;BME280;28372;56.832;60.658;2023-05-23T13:10:48;98896.53;;;29.91;13.53
42727;BME280;28372;56.832;60.658;2023-05-23T13:13:16;98892.97;;;29.90;13.88
42727;BME280;28372;56.832;60.658;2023-05-23T13:15:44;98888.94;;;29.92;13.35
42727;BME280;28372;56.832;60.658;2023-05-23T13:18:15;98889.25;;;29.94;13.28
42727;BME280;28372;56.832;60.658;2023-05-23T13:20:43;98890.97;;;29.91;13.16
42727;BME280;28372;56.832;60.658;2023-05-23T13:23:11;98887.88;;;29.89;13.07
42727;BME280;28372;56.832;60.658;2023-05-23T13:25:38;98894.22;;;29.89;13.53
42727;BME280;28372;56.832;60.658;2023-05-23T13:28:06;98894.41;;;29.86;13.47
42727;BME280;28372;56.832;60.658;2023-05-23T13:30:34;98884.94;;;29.83;13.40
42727;BME280;28372;56.832;60.658;2023-05-23T13:33:01;98885.63;;;29.78;13.48
42727;BME280;28372;56.832;60.658;2023-05-23T13:35:29;98896.47;;;29.76;13.25